Nettie, WV (26681)

8:12 PM EDT on August 04, 2015 (GMT -0400)
The Family Center | | Change Station
CLOSE
Current Station
Personal Weather Station
Location: Richwood, WV
Elevation: 2192 ft
Nearby Weather Stations

Elev 2192 ft 38.22 °N, 80.53 °W | Updated 14 minutes ago

Partly Cloudy
Partly Cloudy
72.9 °F
Feels Like 73 °F
N
0.0
Wind Variable Wind from East
Gusts 4.0 mph

Today
High -- | Low -- °F
--% Chance of Precip.
Yesterday
High -- | Low -- °F
Precip. -- in
6:27 AM 8:29 PM
Waning Gibbous, 73% visible
Pressure 30.05 in
Visibility 10.0 miles
Clouds Clear
Heat Index 73 °F
Dew Point 66 °F
Humidity 80%
Rainfall 0.00 in
Snow Depth Not available.
UV 0 out of 12
Pollen 6.20 out of 12
Air Quality Not available.
Flu Activity Not available.
METAR KLWB 042355Z AUTO 00000KT 10SM CLR 26/18 A3005 RMK AO2 T02570176 10295 20257

More Conditions Fewer Conditions

Pressure 30.05 in
Visibility 10.0 miles
Clouds Clear
Heat Index 73 °F
Dew Point 66 °F
Humidity 80%
Rainfall 0.00 in
Snow Depth Not available.
UV 0 out of 12
Pollen 6.20 out of 12
Air Quality Not available.
Flu Activity Not available.
METAR KLWB 042355Z AUTO 00000KT 10SM CLR 26/18 A3005 RMK AO2 T02570176 10295 20257

More Conditions Fewer Conditions

10-Day Weather Forecast

×

Almanac

Astronomy

Aug. 04, 2015 Rise Set
Actual Time
Civil Twilight
Nautical Twilight
Astronomical Twilight
Moon
Length of Visible Light
Length of Day
Tomorrow will be .
, % of the Moon is Illuminated

Today's Extremes

State Highs State Lows

Community

WunderPhotos

Upload Photos

1,844,034 photos uploaded!

WunderBlogs® & News

Nearby

Air Quality

  Air Quality AQ Index Pollutant
Not available.

Snow Depth

Station Depth Elevation

Earthquake Activity

City Distance Mag. Time & Date
Minimum magnitude displayed is 2.5.

Coastal Water Temperatures

Place Temperature

Stations

Nearby Weather Stations

Station Location Temp. Windchill Dew Point Humidity Wind Precip. Elev Updated Type